sensor_id;sensor_type;location;lat;lon;timestamp;P1;durP1;ratioP1;P2;durP2;ratioP2
39740;SDS011;25426;53.478;10.190;2022-08-18T00:02:04;8.65;;;7.82;;
39740;SDS011;25426;53.478;10.190;2022-08-18T00:04:51;9.35;;;8.15;;
39740;SDS011;25426;53.478;10.190;2022-08-18T00:07:26;9.82;;;9.02;;
39740;SDS011;25426;53.478;10.190;2022-08-18T00:10:00;9.35;;;8.55;;
39740;SDS011;25426;53.478;10.190;2022-08-18T00:12:35;9.00;;;8.30;;
39740;SDS011;25426;53.478;10.190;2022-08-18T00:15:12;10.73;;;9.43;;
39740;SDS011;25426;53.478;10.190;2022-08-18T00:17:45;11.40;;;10.50;;
39740;SDS011;25426;53.478;10.190;2022-08-18T00:20:18;13.35;;;11.65;;
39740;SDS011;25426;53.478;10.190;2022-08-18T00:22:52;12.32;;;11.32;;
39740;SDS011;25426;53.478;10.190;2022-08-18T00:25:25;12.25;;;11.18;;
39740;SDS011;25426;53.478;10.190;2022-08-18T00:27:56;12.25;;;11.15;;
39740;SDS011;25426;53.478;10.190;2022-08-18T00:30:27;12.93;;;11.60;;
39740;SDS011;25426;53.478;10.190;2022-08-18T00:32:58;13.18;;;11.85;;
39740;SDS011;25426;53.478;10.190;2022-08-18T00:35:34;13.57;;;12.43;;
39740;SDS011;25426;53.478;10.190;2022-08-18T00:38:07;13.82;;;12.68;;
39740;SDS011;25426;53.478;10.190;2022-08-18T00:40:40;14.63;;;13.32;;
39740;SDS011;25426;53.478;10.190;2022-08-18T00:46:34;14.48;;;13.27;;
39740;SDS011;25426;53.478;10.190;2022-08-18T00:49:06;16.08;;;14.60;;
39740;SDS011;25426;53.478;10.190;2022-08-18T00:51:42;15.20;;;13.90;;
39740;SDS011;25426;53.478;10.190;2022-08-18T00:54:18;16.15;;;14.85;;
39740;SDS011;25426;53.478;10.190;2022-08-18T00:56:56;17.77;;;16.15;;
39740;SDS011;25426;53.478;10.190;2022-08-18T00:59:45;18.35;;;16.67;;
39740;SDS011;25426;53.478;10.190;2022-08-18T01:02:38;18.35;;;16.67;;
39740;SDS011;25426;53.478;10.190;2022-08-18T01:05:26;18.52;;;16.90;;
39740;SDS011;25426;53.478;10.190;2022-08-18T01:08:07;18.45;;;16.80;;
39740;SDS011;25426;53.478;10.190;2022-08-18T01:10:46;19.50;;;17.60;;
39740;SDS011;25426;53.478;10.190;2022-08-18T01:13:17;18.60;;;16.98;;
39740;SDS011;25426;53.478;10.190;2022-08-18T01:15:48;19.23;;;17.33;;
39740;SDS011;25426;53.478;10.190;2022-08-18T01:18:19;19.23;;;17.42;;
39740;SDS011;25426;53.478;10.190;2022-08-18T01:21:20;22.65;;;18.38;;
39740;SDS011;25426;53.478;10.190;2022-08-18T01:24:13;19.25;;;17.40;;
39740;SDS011;25426;53.478;10.190;2022-08-18T01:26:45;20.02;;;18.17;;
39740;SDS011;25426;53.478;10.190;2022-08-18T01:29:19;18.75;;;16.88;;
39740;SDS011;25426;53.478;10.190;2022-08-18T01:31:51;19.90;;;18.35;;
39740;SDS011;25426;53.478;10.190;2022-08-18T01:34:24;21.63;;;19.63;;
39740;SDS011;25426;53.478;10.190;2022-08-18T01:36:57;19.75;;;17.85;;
39740;SDS011;25426;53.478;10.190;2022-08-18T01:39:28;20.38;;;18.48;;
39740;SDS011;25426;53.478;10.190;2022-08-18T01:41:59;21.58;;;19.42;;
39740;SDS011;25426;53.478;10.190;2022-08-18T01:44:31;19.70;;;17.88;;
39740;SDS011;25426;53.478;10.190;2022-08-18T01:47:02;21.02;;;19.15;;
39740;SDS011;25426;53.478;10.190;2022-08-18T01:49:33;21.05;;;19.23;;
39740;SDS011;25426;53.478;10.190;2022-08-18T01:52:04;22.77;;;20.60;;
39740;SDS011;25426;53.478;10.190;2022-08-18T01:54:36;23.48;;;21.20;;
39740;SDS011;25426;53.478;10.190;2022-08-18T01:57:10;18.25;;;16.70;;
39740;SDS011;25426;53.478;10.190;2022-08-18T01:59:43;20.02;;;18.23;;
39740;SDS011;25426;53.478;10.190;2022-08-18T02:02:15;19.63;;;18.05;;
39740;SDS011;25426;53.478;10.190;2022-08-18T02:04:57;17.40;;;15.82;;
39740;SDS011;25426;53.478;10.190;2022-08-18T02:07:34;23.48;;;21.23;;
39740;SDS011;25426;53.478;10.190;2022-08-18T02:10:07;18.42;;;16.60;;
39740;SDS011;25426;53.478;10.190;2022-08-18T02:12:42;20.05;;;18.30;;
39740;SDS011;25426;53.478;10.190;2022-08-18T02:15:13;18.73;;;16.98;;
39740;SDS011;25426;53.478;10.190;2022-08-18T02:17:44;20.98;;;19.05;;
39740;SDS011;25426;53.478;10.190;2022-08-18T02:20:17;16.77;;;15.40;;
39740;SDS011;25426;53.478;10.190;2022-08-18T02:22:49;14.27;;;13.07;;
39740;SDS011;25426;53.478;10.190;2022-08-18T02:25:20;23.50;;;21.40;;
39740;SDS011;25426;53.478;10.190;2022-08-18T02:27:51;21.67;;;19.52;;
39740;SDS011;25426;53.478;10.190;2022-08-18T02:30:22;26.80;;;24.02;;
39740;SDS011;25426;53.478;10.190;2022-08-18T02:32:53;17.80;;;16.20;;
39740;SDS011;25426;53.478;10.190;2022-08-18T02:35:28;18.23;;;16.70;;
39740;SDS011;25426;53.478;10.190;2022-08-18T02:37:59;25.15;;;22.75;;
39740;SDS011;25426;53.478;10.190;2022-08-18T02:40:33;20.40;;;18.48;;
39740;SDS011;25426;53.478;10.190;2022-08-18T02:43:06;21.15;;;19.25;;
39740;SDS011;25426;53.478;10.190;2022-08-18T02:45:38;16.83;;;15.43;;
39740;SDS011;25426;53.478;10.190;2022-08-18T02:48:09;26.40;;;23.80;;
39740;SDS011;25426;53.478;10.190;2022-08-18T02:50:40;27.05;;;24.27;;
39740;SDS011;25426;53.478;10.190;2022-08-18T02:53:16;25.85;;;23.48;;
39740;SDS011;25426;53.478;10.190;2022-08-18T02:55:51;23.55;;;21.48;;
39740;SDS011;25426;53.478;10.190;2022-08-18T02:58:22;22.02;;;20.02;;
39740;SDS011;25426;53.478;10.190;2022-08-18T03:00:53;28.95;;;25.98;;
39740;SDS011;25426;53.478;10.190;2022-08-18T03:03:24;24.05;;;21.80;;
39740;SDS011;25426;53.478;10.190;2022-08-18T03:05:55;20.10;;;18.20;;
39740;SDS011;25426;53.478;10.190;2022-08-18T03:08:26;20.48;;;18.58;;
39740;SDS011;25426;53.478;10.190;2022-08-18T03:10:57;18.30;;;16.70;;
39740;SDS011;25426;53.478;10.190;2022-08-18T03:13:28;16.90;;;15.10;;
39740;SDS011;25426;53.478;10.190;2022-08-18T03:15:59;25.90;;;23.45;;
39740;SDS011;25426;53.478;10.190;2022-08-18T03:18:30;27.08;;;24.45;;
39740;SDS011;25426;53.478;10.190;2022-08-18T03:21:05;27.27;;;24.45;;
39740;SDS011;25426;53.478;10.190;2022-08-18T03:23:39;24.30;;;21.75;;
39740;SDS011;25426;53.478;10.190;2022-08-18T03:26:11;28.98;;;26.10;;
39740;SDS011;25426;53.478;10.190;2022-08-18T03:28:44;23.05;;;20.95;;
39740;SDS011;25426;53.478;10.190;2022-08-18T03:31:20;19.73;;;17.95;;
39740;SDS011;25426;53.478;10.190;2022-08-18T03:33:55;27.42;;;24.52;;
39740;SDS011;25426;53.478;10.190;2022-08-18T03:36:29;21.52;;;19.52;;
39740;SDS011;25426;53.478;10.190;2022-08-18T03:39:06;19.00;;;17.35;;
39740;SDS011;25426;53.478;10.190;2022-08-18T03:41:41;28.35;;;25.77;;
39740;SDS011;25426;53.478;10.190;2022-08-18T03:44:15;29.70;;;26.52;;
39740;SDS011;25426;53.478;10.190;2022-08-18T03:46:46;29.08;;;25.98;;
39740;SDS011;25426;53.478;10.190;2022-08-18T03:49:17;27.80;;;25.00;;
39740;SDS011;25426;53.478;10.190;2022-08-18T03:51:49;26.63;;;23.77;;
39740;SDS011;25426;53.478;10.190;2022-08-18T03:54:21;31.13;;;27.95;;
39740;SDS011;25426;53.478;10.190;2022-08-18T03:56:52;23.35;;;21.17;;
39740;SDS011;25426;53.478;10.190;2022-08-18T03:59:24;19.40;;;17.70;;
39740;SDS011;25426;53.478;10.190;2022-08-18T04:01:57;25.45;;;22.83;;
39740;SDS011;25426;53.478;10.190;2022-08-18T04:04:28;19.25;;;17.45;;
39740;SDS011;25426;53.478;10.190;2022-08-18T04:07:00;27.83;;;25.17;;
39740;SDS011;25426;53.478;10.190;2022-08-18T04:09:37;28.13;;;25.17;;
39740;SDS011;25426;53.478;10.190;2022-08-18T04:12:10;24.55;;;22.27;;
39740;SDS011;25426;53.478;10.190;2022-08-18T04:14:45;28.65;;;25.60;;
39740;SDS011;25426;53.478;10.190;2022-08-18T04:17:18;26.33;;;23.88;;
39740;SDS011;25426;53.478;10.190;2022-08-18T04:19:54;26.23;;;23.55;;
39740;SDS011;25426;53.478;10.190;2022-08-18T04:22:25;30.42;;;27.33;;
39740;SDS011;25426;53.478;10.190;2022-08-18T04:24:56;31.17;;;27.88;;
39740;SDS011;25426;53.478;10.190;2022-08-18T04:27:27;29.98;;;26.83;;
39740;SDS011;25426;53.478;10.190;2022-08-18T04:29:58;25.13;;;22.45;;
39740;SDS011;25426;53.478;10.190;2022-08-18T04:32:30;27.70;;;24.77;;
39740;SDS011;25426;53.478;10.190;2022-08-18T04:35:01;31.75;;;28.38;;
39740;SDS011;25426;53.478;10.190;2022-08-18T04:37:33;33.28;;;29.95;;
39740;SDS011;25426;53.478;10.190;2022-08-18T04:40:07;31.95;;;28.67;;
39740;SDS011;25426;53.478;10.190;2022-08-18T04:42:40;32.72;;;29.23;;
39740;SDS011;25426;53.478;10.190;2022-08-18T04:45:11;26.15;;;23.45;;
39740;SDS011;25426;53.478;10.190;2022-08-18T04:47:42;24.23;;;21.88;;
39740;SDS011;25426;53.478;10.190;2022-08-18T04:50:13;26.90;;;24.38;;
39740;SDS011;25426;53.478;10.190;2022-08-18T04:52:44;32.25;;;28.90;;
39740;SDS011;25426;53.478;10.190;2022-08-18T04:55:33;29.20;;;25.92;;
39740;SDS011;25426;53.478;10.190;2022-08-18T04:58:04;28.48;;;25.60;;
39740;SDS011;25426;53.478;10.190;2022-08-18T05:00:36;29.10;;;26.25;;
39740;SDS011;25426;53.478;10.190;2022-08-18T05:03:07;28.92;;;26.08;;
39740;SDS011;25426;53.478;10.190;2022-08-18T05:05:38;28.05;;;25.33;;
39740;SDS011;25426;53.478;10.190;2022-08-18T05:08:09;27.35;;;23.77;;
39740;SDS011;25426;53.478;10.190;2022-08-18T05:10:40;24.52;;;22.33;;
39740;SDS011;25426;53.478;10.190;2022-08-18T05:13:11;23.95;;;21.85;;
39740;SDS011;25426;53.478;10.190;2022-08-18T05:15:50;25.70;;;23.23;;
39740;SDS011;25426;53.478;10.190;2022-08-18T05:18:23;25.13;;;22.83;;
39740;SDS011;25426;53.478;10.190;2022-08-18T05:20:55;25.42;;;22.98;;
39740;SDS011;25426;53.478;10.190;2022-08-18T05:23:26;27.35;;;23.92;;
39740;SDS011;25426;53.478;10.190;2022-08-18T05:25:59;26.23;;;23.83;;
39740;SDS011;25426;53.478;10.190;2022-08-18T05:28:32;26.98;;;24.20;;
39740;SDS011;25426;53.478;10.190;2022-08-18T05:31:07;24.98;;;22.45;;
39740;SDS011;25426;53.478;10.190;2022-08-18T05:33:48;26.20;;;23.70;;
39740;SDS011;25426;53.478;10.190;2022-08-18T05:42:05;24.13;;;21.98;;
39740;SDS011;25426;53.478;10.190;2022-08-18T05:44:47;22.20;;;19.90;;
39740;SDS011;25426;53.478;10.190;2022-08-18T05:47:29;22.10;;;20.02;;
39740;SDS011;25426;53.478;10.190;2022-08-18T05:50:02;22.15;;;20.05;;
39740;SDS011;25426;53.478;10.190;2022-08-18T05:55:39;20.20;;;18.50;;
39740;SDS011;25426;53.478;10.190;2022-08-18T05:58:49;22.52;;;20.40;;
39740;SDS011;25426;53.478;10.190;2022-08-18T06:01:25;21.50;;;19.25;;
39740;SDS011;25426;53.478;10.190;2022-08-18T06:04:07;21.65;;;19.92;;
39740;SDS011;25426;53.478;10.190;2022-08-18T06:07:08;20.88;;;18.77;;
39740;SDS011;25426;53.478;10.190;2022-08-18T06:09:49;18.17;;;16.60;;
39740;SDS011;25426;53.478;10.190;2022-08-18T06:12:33;22.80;;;20.63;;
39740;SDS011;25426;53.478;10.190;2022-08-18T06:21:52;17.45;;;15.95;;
39740;SDS011;25426;53.478;10.190;2022-08-18T06:25:21;21.25;;;17.52;;
39740;SDS011;25426;53.478;10.190;2022-08-18T06:28:34;19.30;;;17.60;;
39740;SDS011;25426;53.478;10.190;2022-08-18T06:31:32;18.75;;;17.15;;
39740;SDS011;25426;53.478;10.190;2022-08-18T06:37:22;19.30;;;17.73;;
39740;SDS011;25426;53.478;10.190;2022-08-18T06:40:03;17.58;;;16.08;;
39740;SDS011;25426;53.478;10.190;2022-08-18T06:42:34;16.88;;;15.38;;
39740;SDS011;25426;53.478;10.190;2022-08-18T06:45:07;15.10;;;13.73;;
39740;SDS011;25426;53.478;10.190;2022-08-18T06:47:42;16.13;;;14.82;;
39740;SDS011;25426;53.478;10.190;2022-08-18T06:50:29;16.00;;;14.65;;
39740;SDS011;25426;53.478;10.190;2022-08-18T06:53:09;18.38;;;16.65;;
39740;SDS011;25426;53.478;10.190;2022-08-18T06:55:41;18.13;;;16.73;;
39740;SDS011;25426;53.478;10.190;2022-08-18T06:58:26;20.25;;;18.48;;
39740;SDS011;25426;53.478;10.190;2022-08-18T07:01:03;20.23;;;18.45;;
39740;SDS011;25426;53.478;10.190;2022-08-18T07:06:24;27.85;;;25.08;;
39740;SDS011;25426;53.478;10.190;2022-08-18T07:09:17;30.50;;;27.80;;
39740;SDS011;25426;53.478;10.190;2022-08-18T07:11:59;31.52;;;28.70;;
39740;SDS011;25426;53.478;10.190;2022-08-18T07:14:43;32.78;;;29.63;;
39740;SDS011;25426;53.478;10.190;2022-08-18T07:17:31;31.10;;;28.30;;
39740;SDS011;25426;53.478;10.190;2022-08-18T07:20:30;31.70;;;28.77;;
39740;SDS011;25426;53.478;10.190;2022-08-18T07:23:02;35.58;;;32.33;;
39740;SDS011;25426;53.478;10.190;2022-08-18T07:25:38;37.50;;;33.72;;
39740;SDS011;25426;53.478;10.190;2022-08-18T07:28:26;37.70;;;33.80;;
39740;SDS011;25426;53.478;10.190;2022-08-18T07:31:18;39.30;;;35.42;;
39740;SDS011;25426;53.478;10.190;2022-08-18T07:34:41;41.22;;;36.92;;
39740;SDS011;25426;53.478;10.190;2022-08-18T07:37:23;41.55;;;37.10;;
39740;SDS011;25426;53.478;10.190;2022-08-18T07:40:28;40.63;;;36.30;;
39740;SDS011;25426;53.478;10.190;2022-08-18T07:46:16;39.78;;;34.72;;
39740;SDS011;25426;53.478;10.190;2022-08-18T07:49:30;38.33;;;34.38;;
39740;SDS011;25426;53.478;10.190;2022-08-18T07:52:05;36.47;;;32.85;;
39740;SDS011;25426;53.478;10.190;2022-08-18T07:57:58;41.05;;;36.75;;
39740;SDS011;25426;53.478;10.190;2022-08-18T08:01:12;40.28;;;35.28;;
39740;SDS011;25426;53.478;10.190;2022-08-18T08:07:44;40.35;;;33.90;;
39740;SDS011;25426;53.478;10.190;2022-08-18T08:10:27;44.15;;;32.97;;
39740;SDS011;25426;53.478;10.190;2022-08-18T08:13:15;39.47;;;34.08;;
39740;SDS011;25426;53.478;10.190;2022-08-18T08:20:04;38.13;;;31.77;;
39740;SDS011;25426;53.478;10.190;2022-08-18T08:26:22;34.08;;;28.77;;
39740;SDS011;25426;53.478;10.190;2022-08-18T08:32:19;35.83;;;31.95;;
39740;SDS011;25426;53.478;10.190;2022-08-18T08:35:17;34.45;;;30.73;;
39740;SDS011;25426;53.478;10.190;2022-08-18T08:38:01;36.08;;;32.17;;
39740;SDS011;25426;53.478;10.190;2022-08-18T08:40:50;35.75;;;31.98;;
39740;SDS011;25426;53.478;10.190;2022-08-18T08:43:42;36.38;;;32.35;;
39740;SDS011;25426;53.478;10.190;2022-08-18T08:46:49;37.78;;;33.42;;
39740;SDS011;25426;53.478;10.190;2022-08-18T08:49:46;36.10;;;31.45;;
39740;SDS011;25426;53.478;10.190;2022-08-18T08:52:37;36.25;;;32.38;;
39740;SDS011;25426;53.478;10.190;2022-08-18T08:55:34;38.33;;;32.92;;
39740;SDS011;25426;53.478;10.190;2022-08-18T08:58:20;38.45;;;33.17;;
39740;SDS011;25426;53.478;10.190;2022-08-18T09:04:46;33.42;;;29.98;;
39740;SDS011;25426;53.478;10.190;2022-08-18T09:08:21;34.78;;;30.60;;
39740;SDS011;25426;53.478;10.190;2022-08-18T09:17:48;33.03;;;29.55;;
39740;SDS011;25426;53.478;10.190;2022-08-18T09:20:48;30.83;;;27.65;;
39740;SDS011;25426;53.478;10.190;2022-08-18T09:24:03;32.35;;;28.88;;
39740;SDS011;25426;53.478;10.190;2022-08-18T09:34:04;32.97;;;29.75;;
39740;SDS011;25426;53.478;10.190;2022-08-18T09:36:46;32.45;;;29.25;;
39740;SDS011;25426;53.478;10.190;2022-08-18T09:39:51;32.53;;;29.48;;
39740;SDS011;25426;53.478;10.190;2022-08-18T09:43:13;33.50;;;29.75;;
39740;SDS011;25426;53.478;10.190;2022-08-18T09:45:57;33.05;;;29.75;;
39740;SDS011;25426;53.478;10.190;2022-08-18T09:48:39;30.88;;;27.42;;
39740;SDS011;25426;53.478;10.190;2022-08-18T09:51:21;27.88;;;25.02;;
39740;SDS011;25426;53.478;10.190;2022-08-18T09:54:07;27.25;;;24.48;;
39740;SDS011;25426;53.478;10.190;2022-08-18T10:02:06;26.23;;;23.45;;
39740;SDS011;25426;53.478;10.190;2022-08-18T10:04:41;26.00;;;23.50;;
39740;SDS011;25426;53.478;10.190;2022-08-18T10:07:28;25.60;;;23.10;;
39740;SDS011;25426;53.478;10.190;2022-08-18T10:16:58;26.33;;;23.55;;
39740;SDS011;25426;53.478;10.190;2022-08-18T10:20:29;27.40;;;24.80;;
39740;SDS011;25426;53.478;10.190;2022-08-18T10:34:36;26.60;;;24.00;;
39740;SDS011;25426;53.478;10.190;2022-08-18T10:39:56;24.98;;;22.55;;
39740;SDS011;25426;53.478;10.190;2022-08-18T10:42:39;29.60;;;27.00;;
39740;SDS011;25426;53.478;10.190;2022-08-18T10:48:28;27.05;;;24.48;;
39740;SDS011;25426;53.478;10.190;2022-08-18T11:07:00;21.55;;;19.50;;
39740;SDS011;25426;53.478;10.190;2022-08-18T11:09:51;23.23;;;20.88;;
39740;SDS011;25426;53.478;10.190;2022-08-18T11:18:33;19.13;;;17.45;;
39740;SDS011;25426;53.478;10.190;2022-08-18T11:21:23;21.50;;;19.33;;
39740;SDS011;25426;53.478;10.190;2022-08-18T11:24:14;21.00;;;19.02;;
39740;SDS011;25426;53.478;10.190;2022-08-18T11:27:03;17.25;;;15.55;;
39740;SDS011;25426;53.478;10.190;2022-08-18T11:29:46;15.45;;;13.85;;
39740;SDS011;25426;53.478;10.190;2022-08-18T11:32:30;16.38;;;14.77;;
39740;SDS011;25426;53.478;10.190;2022-08-18T11:40:43;15.85;;;14.20;;
39740;SDS011;25426;53.478;10.190;2022-08-18T11:43:28;16.20;;;14.73;;
39740;SDS011;25426;53.478;10.190;2022-08-18T11:48:59;16.83;;;15.38;;
39740;SDS011;25426;53.478;10.190;2022-08-18T11:51:55;14.98;;;13.68;;
39740;SDS011;25426;53.478;10.190;2022-08-18T11:54:34;16.83;;;15.32;;
39740;SDS011;25426;53.478;10.190;2022-08-18T12:08:58;16.50;;;15.10;;
39740;SDS011;25426;53.478;10.190;2022-08-18T12:11:57;13.82;;;12.48;;
39740;SDS011;25426;53.478;10.190;2022-08-18T12:14:52;13.70;;;12.50;;
39740;SDS011;25426;53.478;10.190;2022-08-18T12:17:44;11.45;;;10.48;;
39740;SDS011;25426;53.478;10.190;2022-08-18T12:20:16;12.70;;;11.50;;
39740;SDS011;25426;53.478;10.190;2022-08-18T12:22:47;12.30;;;11.02;;
39740;SDS011;25426;53.478;10.190;2022-08-18T12:25:19;13.02;;;10.63;;
39740;SDS011;25426;53.478;10.190;2022-08-18T12:27:50;11.35;;;10.43;;
39740;SDS011;25426;53.478;10.190;2022-08-18T12:30:22;12.70;;;10.45;;
39740;SDS011;25426;53.478;10.190;2022-08-18T12:32:53;11.07;;;10.00;;
39740;SDS011;25426;53.478;10.190;2022-08-18T12:35:24;10.25;;;9.35;;
39740;SDS011;25426;53.478;10.190;2022-08-18T12:37:55;10.50;;;9.52;;
39740;SDS011;25426;53.478;10.190;2022-08-18T12:40:26;10.82;;;9.82;;
39740;SDS011;25426;53.478;10.190;2022-08-18T12:42:57;11.63;;;10.43;;
39740;SDS011;25426;53.478;10.190;2022-08-18T12:45:28;9.27;;;8.45;;
39740;SDS011;25426;53.478;10.190;2022-08-18T12:48:00;10.00;;;9.15;;
39740;SDS011;25426;53.478;10.190;2022-08-18T12:50:31;9.70;;;8.80;;
39740;SDS011;25426;53.478;10.190;2022-08-18T12:53:04;10.88;;;9.88;;
39740;SDS011;25426;53.478;10.190;2022-08-18T12:55:38;10.07;;;9.18;;
39740;SDS011;25426;53.478;10.190;2022-08-18T12:58:12;10.15;;;9.18;;
39740;SDS011;25426;53.478;10.190;2022-08-18T13:00:43;9.93;;;8.95;;
39740;SDS011;25426;53.478;10.190;2022-08-18T13:03:16;9.70;;;8.80;;
39740;SDS011;25426;53.478;10.190;2022-08-18T13:05:48;10.23;;;9.18;;
39740;SDS011;25426;53.478;10.190;2022-08-18T13:08:20;10.65;;;9.55;;
39740;SDS011;25426;53.478;10.190;2022-08-18T13:10:51;11.32;;;10.10;;
39740;SDS011;25426;53.478;10.190;2022-08-18T13:13:22;10.98;;;9.88;;
39740;SDS011;25426;53.478;10.190;2022-08-18T13:15:53;12.20;;;8.95;;
39740;SDS011;25426;53.478;10.190;2022-08-18T13:18:24;9.65;;;8.80;;
39740;SDS011;25426;53.478;10.190;2022-08-18T13:20:56;10.52;;;9.68;;
39740;SDS011;25426;53.478;10.190;2022-08-18T13:23:27;9.88;;;8.85;;
39740;SDS011;25426;53.478;10.190;2022-08-18T13:25:59;9.52;;;8.55;;
39740;SDS011;25426;53.478;10.190;2022-08-18T13:28:32;10.05;;;9.10;;
39740;SDS011;25426;53.478;10.190;2022-08-18T13:31:05;9.38;;;8.43;;
39740;SDS011;25426;53.478;10.190;2022-08-18T13:33:36;11.40;;;9.15;;
39740;SDS011;25426;53.478;10.190;2022-08-18T13:36:07;10.23;;;7.90;;
39740;SDS011;25426;53.478;10.190;2022-08-18T13:38:38;9.43;;;8.52;;
39740;SDS011;25426;53.478;10.190;2022-08-18T13:41:11;11.20;;;9.60;;
39740;SDS011;25426;53.478;10.190;2022-08-18T13:43:43;10.65;;;9.50;;
39740;SDS011;25426;53.478;10.190;2022-08-18T13:46:17;9.88;;;9.00;;
39740;SDS011;25426;53.478;10.190;2022-08-18T13:48:48;11.00;;;9.38;;
39740;SDS011;25426;53.478;10.190;2022-08-18T13:51:21;10.60;;;9.48;;
39740;SDS011;25426;53.478;10.190;2022-08-18T13:53:53;13.90;;;10.50;;
39740;SDS011;25426;53.478;10.190;2022-08-18T13:56:24;10.07;;;9.13;;
39740;SDS011;25426;53.478;10.190;2022-08-18T13:58:55;12.73;;;10.00;;
39740;SDS011;25426;53.478;10.190;2022-08-18T14:01:26;9.70;;;8.93;;
39740;SDS011;25426;53.478;10.190;2022-08-18T14:03:57;9.52;;;8.63;;
39740;SDS011;25426;53.478;10.190;2022-08-18T14:06:28;10.07;;;9.15;;
39740;SDS011;25426;53.478;10.190;2022-08-18T14:08:59;10.10;;;8.88;;
39740;SDS011;25426;53.478;10.190;2022-08-18T14:11:30;10.23;;;9.23;;
39740;SDS011;25426;53.478;10.190;2022-08-18T14:14:03;8.80;;;8.07;;
39740;SDS011;25426;53.478;10.190;2022-08-18T14:16:34;9.15;;;8.25;;
39740;SDS011;25426;53.478;10.190;2022-08-18T14:19:05;8.57;;;7.75;;
39740;SDS011;25426;53.478;10.190;2022-08-18T14:21:55;9.50;;;7.30;;
39740;SDS011;25426;53.478;10.190;2022-08-18T14:24:58;9.70;;;8.07;;
39740;SDS011;25426;53.478;10.190;2022-08-18T14:27:48;8.45;;;7.72;;
39740;SDS011;25426;53.478;10.190;2022-08-18T14:30:19;8.00;;;6.68;;
39740;SDS011;25426;53.478;10.190;2022-08-18T14:32:50;8.70;;;7.85;;
39740;SDS011;25426;53.478;10.190;2022-08-18T14:35:24;9.25;;;7.60;;
39740;SDS011;25426;53.478;10.190;2022-08-18T14:37:55;9.00;;;8.20;;
39740;SDS011;25426;53.478;10.190;2022-08-18T14:40:30;9.38;;;8.48;;
39740;SDS011;25426;53.478;10.190;2022-08-18T14:43:02;9.15;;;8.15;;
39740;SDS011;25426;53.478;10.190;2022-08-18T14:45:33;8.98;;;8.18;;
39740;SDS011;25426;53.478;10.190;2022-08-18T14:48:04;9.45;;;8.43;;
39740;SDS011;25426;53.478;10.190;2022-08-18T14:50:35;11.70;;;7.63;;
39740;SDS011;25426;53.478;10.190;2022-08-18T14:53:07;8.82;;;8.02;;
39740;SDS011;25426;53.478;10.190;2022-08-18T14:55:38;10.85;;;8.80;;
39740;SDS011;25426;53.478;10.190;2022-08-18T14:58:09;9.07;;;8.32;;
39740;SDS011;25426;53.478;10.190;2022-08-18T15:00:40;8.40;;;7.70;;
39740;SDS011;25426;53.478;10.190;2022-08-18T15:03:10;8.30;;;7.43;;
39740;SDS011;25426;53.478;10.190;2022-08-18T15:05:41;11.02;;;8.82;;
39740;SDS011;25426;53.478;10.190;2022-08-18T15:08:12;10.18;;;9.27;;
39740;SDS011;25426;53.478;10.190;2022-08-18T15:10:43;10.00;;;9.10;;
39740;SDS011;25426;53.478;10.190;2022-08-18T15:13:14;13.45;;;10.60;;
39740;SDS011;25426;53.478;10.190;2022-08-18T15:15:45;11.48;;;10.30;;
39740;SDS011;25426;53.478;10.190;2022-08-18T15:18:16;10.38;;;9.55;;
39740;SDS011;25426;53.478;10.190;2022-08-18T15:20:49;10.73;;;9.73;;
39740;SDS011;25426;53.478;10.190;2022-08-18T15:23:39;11.32;;;10.18;;
39740;SDS011;25426;53.478;10.190;2022-08-18T15:26:28;11.68;;;10.75;;
39740;SDS011;25426;53.478;10.190;2022-08-18T15:29:01;10.88;;;9.88;;
39740;SDS011;25426;53.478;10.190;2022-08-18T15:31:32;11.32;;;10.32;;
39740;SDS011;25426;53.478;10.190;2022-08-18T15:34:04;9.90;;;8.98;;
39740;SDS011;25426;53.478;10.190;2022-08-18T15:36:35;11.45;;;9.27;;
39740;SDS011;25426;53.478;10.190;2022-08-18T15:39:08;11.73;;;9.60;;
39740;SDS011;25426;53.478;10.190;2022-08-18T15:41:40;10.40;;;9.50;;
39740;SDS011;25426;53.478;10.190;2022-08-18T15:44:19;13.00;;;11.75;;
39740;SDS011;25426;53.478;10.190;2022-08-18T15:46:51;12.18;;;10.98;;
39740;SDS011;25426;53.478;10.190;2022-08-18T15:49:22;12.10;;;10.93;;
39740;SDS011;25426;53.478;10.190;2022-08-18T15:51:53;12.02;;;10.82;;
39740;SDS011;25426;53.478;10.190;2022-08-18T15:54:24;12.25;;;10.95;;
39740;SDS011;25426;53.478;10.190;2022-08-18T15:56:55;13.68;;;12.38;;
39740;SDS011;25426;53.478;10.190;2022-08-18T15:59:26;13.50;;;12.30;;
39740;SDS011;25426;53.478;10.190;2022-08-18T16:01:57;14.73;;;13.07;;
39740;SDS011;25426;53.478;10.190;2022-08-18T16:04:29;13.45;;;12.07;;
39740;SDS011;25426;53.478;10.190;2022-08-18T16:07:00;16.45;;;15.02;;
39740;SDS011;25426;53.478;10.190;2022-08-18T16:09:31;14.57;;;13.13;;
39740;SDS011;25426;53.478;10.190;2022-08-18T16:12:02;13.70;;;12.57;;
39740;SDS011;25426;53.478;10.190;2022-08-18T16:14:36;12.75;;;11.55;;
39740;SDS011;25426;53.478;10.190;2022-08-18T16:17:09;12.13;;;10.93;;
39740;SDS011;25426;53.478;10.190;2022-08-18T16:19:40;12.25;;;11.05;;
39740;SDS011;25426;53.478;10.190;2022-08-18T16:22:11;11.63;;;10.43;;
39740;SDS011;25426;53.478;10.190;2022-08-18T16:24:42;11.23;;;9.52;;
39740;SDS011;25426;53.478;10.190;2022-08-18T16:27:13;15.70;;;10.68;;
39740;SDS011;25426;53.478;10.190;2022-08-18T16:29:44;11.15;;;9.93;;
39740;SDS011;25426;53.478;10.190;2022-08-18T16:32:15;11.43;;;10.23;;
39740;SDS011;25426;53.478;10.190;2022-08-18T16:34:46;12.40;;;10.27;;
39740;SDS011;25426;53.478;10.190;2022-08-18T16:37:17;11.55;;;10.65;;
39740;SDS011;25426;53.478;10.190;2022-08-18T16:39:48;11.95;;;10.85;;
39740;SDS011;25426;53.478;10.190;2022-08-18T16:42:19;12.30;;;11.13;;
39740;SDS011;25426;53.478;10.190;2022-08-18T16:44:50;11.60;;;10.70;;
39740;SDS011;25426;53.478;10.190;2022-08-18T16:47:21;10.32;;;9.43;;
39740;SDS011;25426;53.478;10.190;2022-08-18T16:49:52;10.70;;;9.48;;
39740;SDS011;25426;53.478;10.190;2022-08-18T16:52:23;9.98;;;9.00;;
39740;SDS011;25426;53.478;10.190;2022-08-18T16:54:53;12.77;;;9.88;;
39740;SDS011;25426;53.478;10.190;2022-08-18T16:57:24;11.82;;;10.00;;
39740;SDS011;25426;53.478;10.190;2022-08-18T17:00:14;9.43;;;8.48;;
39740;SDS011;25426;53.478;10.190;2022-08-18T17:03:04;11.63;;;9.57;;
39740;SDS011;25426;53.478;10.190;2022-08-18T17:06:03;9.75;;;8.73;;
39740;SDS011;25426;53.478;10.190;2022-08-18T17:08:47;12.05;;;9.20;;
39740;SDS011;25426;53.478;10.190;2022-08-18T17:11:19;10.57;;;9.13;;
39740;SDS011;25426;53.478;10.190;2022-08-18T17:13:51;10.82;;;9.43;;
39740;SDS011;25426;53.478;10.190;2022-08-18T17:16:25;11.13;;;8.23;;
39740;SDS011;25426;53.478;10.190;2022-08-18T17:18:57;10.88;;;8.02;;
39740;SDS011;25426;53.478;10.190;2022-08-18T17:21:29;11.13;;;8.10;;
39740;SDS011;25426;53.478;10.190;2022-08-18T17:24:04;11.27;;;8.68;;
39740;SDS011;25426;53.478;10.190;2022-08-18T17:26:43;9.18;;;8.25;;
39740;SDS011;25426;53.478;10.190;2022-08-18T17:29:30;9.95;;;8.43;;